Weather at Circle Bar Landing Strip [CLOSED]

Public forecast

Using degrees Fahrenheit for public forecast. Weather courtesy of forecast.io.

Closest aviation weather report (METAR) to Circle Bar Landing Strip

Closest report is Ozona Municipal Airport, 6.0 nm (11.0 km) WNW. Retrieved 2022/01/17 04:55 UTC (19 minutes ago):

KOZA 170455Z AUTO 10SM CLR 00/M17 A3011 RMK AO2

Closest aviation forecast (TAF) to Circle Bar Landing Strip

Closest forecast is Sonora Municipal Airport, 24.0 nm (44.5 km) ESE. Retrieved 2022-01-17 00:34 UTC (5 hours ago):

TAF KSOA 162332Z 1700/1724 25006KT P6SM SKC FM170030 VRB03KT P6SM SKC FM171700 18006KT P6SM SKC